createdAt,value
2022-10-22T00:13:12.864Z,90.1
2022-10-22T00:33:12.736Z,90.1
2022-10-22T00:53:12.805Z,90.3
2022-10-22T01:13:12.807Z,90.9
2022-10-22T01:33:12.707Z,91.5
2022-10-22T01:53:12.619Z,91.8
2022-10-22T02:13:12.651Z,91.9
2022-10-22T02:33:12.609Z,92.1
2022-10-22T02:53:12.640Z,92.2
2022-10-22T03:13:12.650Z,92.2
2022-10-22T03:33:12.501Z,92.3
2022-10-22T03:53:12.528Z,92.2
2022-10-22T04:13:12.436Z,91.4
2022-10-22T04:33:12.451Z,91.2
2022-10-22T04:53:12.472Z,90.9
2022-10-22T05:13:12.386Z,91.0
2022-10-22T05:33:12.409Z,91.0
2022-10-22T05:53:12.442Z,91.0
2022-10-22T06:13:12.342Z,91.1
2022-10-22T06:33:12.364Z,91.2
2022-10-22T06:53:12.465Z,91.1
2022-10-22T07:13:12.410Z,91.1
2022-10-22T07:33:12.429Z,91.1
2022-10-22T07:53:12.324Z,90.8
2022-10-22T08:13:12.393Z,91.0
2022-10-22T08:33:12.368Z,90.5
2022-10-22T08:53:12.225Z,90.0
2022-10-22T09:13:12.224Z,89.9
2022-10-22T09:33:12.129Z,89.7
2022-10-22T09:53:12.208Z,88.9
2022-10-22T10:13:12.086Z,88.1
2022-10-22T10:33:12.226Z,87.1
2022-10-22T10:53:12.115Z,86.2
2022-10-22T11:13:12.041Z,84.3
2022-10-22T11:33:12.115Z,79.2
2022-10-22T11:53:11.993Z,78.4
2022-10-22T12:13:12.008Z,79.9
2022-10-22T12:33:11.970Z,75.4
2022-10-22T12:53:11.961Z,73.8
2022-10-22T13:13:11.940Z,72.5
2022-10-22T13:33:11.902Z,72.7
2022-10-22T13:53:11.827Z,71.7
2022-10-22T14:13:11.855Z,71.7
2022-10-22T14:33:11.754Z,71.9
2022-10-22T14:53:11.784Z,71.6
2022-10-22T15:13:11.813Z,72.2
2022-10-22T15:33:11.736Z,75.2
2022-10-22T15:53:11.784Z,78.3
2022-10-22T16:13:11.701Z,80.9
2022-10-22T16:33:11.633Z,82.8
2022-10-22T16:53:11.650Z,85.8
2022-10-22T17:13:11.616Z,85.6
2022-10-22T17:33:11.595Z,87.7
2022-10-22T17:53:11.521Z,87.5
2022-10-22T18:13:11.554Z,88.0
2022-10-22T18:33:11.569Z,87.4
2022-10-22T18:53:11.481Z,88.4
2022-10-22T19:13:11.508Z,89.8
2022-10-22T19:33:11.561Z,89.5
2022-10-22T19:53:11.451Z,89.4
2022-10-22T20:13:11.470Z,89.5
2022-10-22T20:33:11.387Z,89.9
2022-10-22T20:53:11.465Z,89.9
2022-10-22T21:13:11.501Z,89.3
2022-10-22T21:33:11.347Z,89.9
2022-10-22T21:53:11.392Z,90.2
2022-10-22T22:13:11.385Z,89.8
2022-10-22T22:33:11.328Z,89.6
2022-10-22T22:53:11.322Z,90.0
2022-10-22T23:13:11.420Z,89.5
2022-10-22T23:33:11.293Z,89.5
2022-10-22T23:53:11.289Z,89.7
